Terminal Aerodrome Forecast
Issued by NWS

Home | Current Version | Previous Version | Text Only | Print | Product List | Glossary On
Versions: 1 2 3 4 5 6 7 8 9 10 11 12 13 14 15 16 17 18 19 20 21 22 23 24 25 26
361
FTUS44 KOUN 232203 AAA
TAFLAW
TAF AMD
KLAW 232203Z 2322/2418 13008KT P6SM FEW050 SCT100 BKN250
      TEMPO 2322/2402 VRB40KT 2SM TSRA BKN040CB
     FM240300 VRB04KT P6SM BKN080 BKN250=

USA.gov is the U.S. government's official web portal to all federal, state and local government web resources and services.